createdAt,value
2022-10-22T00:00:14.937Z,15.16
2022-10-22T00:00:22.540Z,14.00
2022-10-22T00:00:29.944Z,13.43
2022-10-22T00:00:37.334Z,13.08
2022-10-22T00:00:44.761Z,12.93
2022-10-22T00:00:53.040Z,13.18
2022-10-22T00:01:13.028Z,13.29
2022-10-22T00:01:22.259Z,13.23
2022-10-22T00:01:29.637Z,13.07
2022-10-22T00:01:38.276Z,13.27
2022-10-22T00:01:45.907Z,14.43
2022-10-22T00:01:54.490Z,14.29
2022-10-22T00:02:02.520Z,13.62
2022-10-22T00:02:22.480Z,13.75
2022-10-22T00:02:30.109Z,14.87
2022-10-22T00:02:37.923Z,14.48
2022-10-22T00:02:45.631Z,14.93
2022-10-22T00:02:53.392Z,15.05
2022-10-22T00:03:00.959Z,14.07
2022-10-22T00:03:20.708Z,14.90
2022-10-22T00:03:28.382Z,15.38
2022-10-22T00:03:35.723Z,18.27
2022-10-22T00:03:43.180Z,18.48
2022-10-22T00:04:03.178Z,16.21
2022-10-22T00:04:10.568Z,12.66
2022-10-22T00:04:17.964Z,12.28
2022-10-22T00:04:25.473Z,12.30
2022-10-22T00:04:35.405Z,11.43
2022-10-22T00:04:57.287Z,13.39
2022-10-22T00:05:05.696Z,13.85
2022-10-22T00:05:13.254Z,13.42
2022-10-22T00:05:32.968Z,13.93
2022-10-22T00:05:40.390Z,13.24
2022-10-22T00:05:48.411Z,12.20
2022-10-22T00:05:55.890Z,11.90
2022-10-22T00:06:03.345Z,12.28
2022-10-22T00:06:23.114Z,14.00
2022-10-22T00:06:30.532Z,13.47
2022-10-22T00:06:37.926Z,13.70
2022-10-22T00:06:45.440Z,13.10
2022-10-22T00:06:52.986Z,13.40
2022-10-22T00:07:12.934Z,12.64
2022-10-22T00:07:22.429Z,13.78
2022-10-22T00:07:30.023Z,14.36
2022-10-22T00:07:37.703Z,14.30
2022-10-22T00:07:45.395Z,14.00
2022-10-22T00:07:52.831Z,13.88
2022-10-22T00:08:12.501Z,14.69
2022-10-22T00:08:19.882Z,15.10
2022-10-22T00:08:27.527Z,16.10
2022-10-22T00:08:34.997Z,15.78
2022-10-22T00:08:42.528Z,15.10
2022-10-22T00:09:02.374Z,15.79
2022-10-22T00:09:09.892Z,16.02
2022-10-22T00:09:17.422Z,15.44
2022-10-22T00:09:24.928Z,14.05
2022-10-22T00:09:32.497Z,13.68
2022-10-22T00:09:52.318Z,13.41
2022-10-22T00:09:59.692Z,14.82
2022-10-22T00:10:07.835Z,14.43
2022-10-22T00:10:15.282Z,15.32
2022-10-22T00:10:22.754Z,16.45
2022-10-22T00:10:42.813Z,14.93
2022-10-22T00:10:50.271Z,12.67
2022-10-22T00:10:58.145Z,12.02
2022-10-22T00:11:10.319Z,12.25
2022-10-22T00:11:19.785Z,14.21
2022-10-22T00:11:27.395Z,15.03
2022-10-22T00:11:35.016Z,15.40
2022-10-22T00:11:43.470Z,14.24
2022-10-22T00:11:50.942Z,13.31
2022-10-22T00:12:11.594Z,12.86
2022-10-22T00:12:19.031Z,14.42
2022-10-22T00:12:27.318Z,14.68
2022-10-22T00:12:34.965Z,14.61
2022-10-22T00:12:42.431Z,13.30
2022-10-22T00:13:02.064Z,13.64
2022-10-22T00:13:10.250Z,13.67
2022-10-22T00:13:17.782Z,14.24
2022-10-22T00:13:25.730Z,13.56
2022-10-22T00:13:33.191Z,13.37
2022-10-22T00:13:41.503Z,13.43
2022-10-22T00:14:01.620Z,13.48
2022-10-22T00:14:09.259Z,14.06
2022-10-22T00:14:16.760Z,14.27
2022-10-22T00:14:24.146Z,15.82
2022-10-22T00:14:31.568Z,13.93
2022-10-22T00:14:51.553Z,14.60
2022-10-22T00:14:59.005Z,15.03
2022-10-22T00:15:07.441Z,15.84
2022-10-22T00:15:14.839Z,15.51
2022-10-22T00:15:22.435Z,14.64
2022-10-22T00:15:42.218Z,13.74
2022-10-22T00:15:49.676Z,14.68
2022-10-22T00:15:57.133Z,15.37
2022-10-22T00:16:05.033Z,16.03
2022-10-22T00:16:13.283Z,15.86
2022-10-22T00:16:33.026Z,14.55
2022-10-22T00:16:40.417Z,14.06
2022-10-22T00:16:47.836Z,14.55
2022-10-22T00:16:56.578Z,14.68
2022-10-22T00:17:06.908Z,15.89
2022-10-22T00:17:19.005Z,16.15
2022-10-22T00:17:26.485Z,15.63
2022-10-22T00:17:33.869Z,14.80
2022-10-22T00:17:41.763Z,14.74
2022-10-22T00:18:02.350Z,15.70
2022-10-22T00:18:09.738Z,15.85
2022-10-22T00:18:17.449Z,15.90
2022-10-22T00:18:24.823Z,15.88
2022-10-22T00:18:32.255Z,15.56
2022-10-22T00:18:41.114Z,15.10
2022-10-22T00:19:01.023Z,15.59
2022-10-22T00:19:09.504Z,16.47
2022-10-22T00:19:16.926Z,15.50
2022-10-22T00:19:24.426Z,14.27
2022-10-22T00:19:31.930Z,15.07
2022-10-22T00:19:52.482Z,14.73
2022-10-22T00:20:02.704Z,15.22
2022-10-22T00:20:10.500Z,15.23
2022-10-22T00:20:17.885Z,15.37
2022-10-22T00:20:25.280Z,15.17
2022-10-22T00:20:32.800Z,14.88
2022-10-22T00:20:52.747Z,14.93
2022-10-22T00:21:00.242Z,14.53
2022-10-22T00:21:08.239Z,14.50
2022-10-22T00:21:15.913Z,15.30
2022-10-22T00:21:23.469Z,15.13
2022-10-22T00:21:31.070Z,14.10
2022-10-22T00:21:50.943Z,12.23
2022-10-22T00:21:58.581Z,13.35
2022-10-22T00:22:06.181Z,15.00
2022-10-22T00:22:13.643Z,15.67
2022-10-22T00:22:21.279Z,15.82
2022-10-22T00:22:41.028Z,14.77
2022-10-22T00:22:49.018Z,15.70
2022-10-22T00:22:56.539Z,16.27
2022-10-22T00:23:04.030Z,15.66
2022-10-22T00:23:11.488Z,15.33
2022-10-22T00:23:31.183Z,13.06
2022-10-22T00:23:45.704Z,13.57
2022-10-22T00:23:53.147Z,13.71
2022-10-22T00:24:00.735Z,14.12
2022-10-22T00:24:08.276Z,14.28
2022-10-22T00:24:15.909Z,14.20
2022-10-22T00:24:23.323Z,14.20
2022-10-22T00:24:43.224Z,14.95
2022-10-22T00:24:50.602Z,16.48
2022-10-22T00:24:57.995Z,16.83
2022-10-22T00:25:05.645Z,16.70
2022-10-22T00:25:13.036Z,15.57
2022-10-22T00:25:35.899Z,14.86
2022-10-22T00:25:43.291Z,13.03
2022-10-22T00:25:50.655Z,14.82
2022-10-22T00:25:58.267Z,14.84
2022-10-22T00:26:05.812Z,15.13
2022-10-22T00:26:13.246Z,15.48
2022-10-22T00:26:32.974Z,13.76
2022-10-22T00:26:40.653Z,14.87
2022-10-22T00:26:48.698Z,16.10
2022-10-22T00:26:58.706Z,16.15
2022-10-22T00:27:08.480Z,16.26
2022-10-22T00:27:16.019Z,15.46
2022-10-22T00:27:23.427Z,14.33
2022-10-22T00:27:30.890Z,14.16
2022-10-22T00:27:50.537Z,15.68
2022-10-22T00:27:57.888Z,15.60
2022-10-22T00:28:05.534Z,16.67
2022-10-22T00:28:12.920Z,15.66
2022-10-22T00:28:32.895Z,14.93
2022-10-22T00:28:40.632Z,13.85
2022-10-22T00:28:47.979Z,14.07
2022-10-22T00:28:55.390Z,14.37
2022-10-22T00:29:02.791Z,13.67
2022-10-22T00:29:22.641Z,12.79
2022-10-22T00:29:30.455Z,13.56
2022-10-22T00:29:38.065Z,14.23
2022-10-22T00:29:45.582Z,15.67
2022-10-22T00:29:53.048Z,15.57
2022-10-22T00:30:13.070Z,12.84
2022-10-22T00:30:20.616Z,11.20
2022-10-22T00:30:28.249Z,11.50
2022-10-22T00:30:35.629Z,12.03
2022-10-22T00:30:43.023Z,13.02
2022-10-22T00:30:57.212Z,13.03
2022-10-22T00:31:05.259Z,13.74
2022-10-22T00:31:12.973Z,14.45
2022-10-22T00:31:32.794Z,13.36
2022-10-22T00:31:40.250Z,13.57
2022-10-22T00:31:50.160Z,15.24
2022-10-22T00:31:57.631Z,15.68
2022-10-22T00:32:06.663Z,17.20
2022-10-22T00:32:14.206Z,15.63
2022-10-22T00:32:21.598Z,16.07
2022-10-22T00:32:41.550Z,13.74
2022-10-22T00:32:49.160Z,12.65
2022-10-22T00:32:56.586Z,12.53
2022-10-22T00:33:04.082Z,13.04
2022-10-22T00:33:11.480Z,13.67
2022-10-22T00:33:31.769Z,12.86
2022-10-22T00:33:39.216Z,12.86
2022-10-22T00:33:48.291Z,13.37
2022-10-22T00:33:55.726Z,13.50
2022-10-22T00:34:03.453Z,13.97
2022-10-22T00:34:10.856Z,14.93
2022-10-22T00:34:21.369Z,14.78
2022-10-22T00:34:41.310Z,14.90
2022-10-22T00:34:48.729Z,14.54
2022-10-22T00:34:56.127Z,13.77
2022-10-22T00:35:04.508Z,12.83
2022-10-22T00:35:11.945Z,12.10
2022-10-22T00:35:21.870Z,12.00
2022-10-22T00:35:41.685Z,12.56
2022-10-22T00:35:49.094Z,11.72
2022-10-22T00:35:56.869Z,12.37
2022-10-22T00:36:04.701Z,12.30
2022-10-22T00:36:12.779Z,12.87
2022-10-22T00:36:32.532Z,13.46
2022-10-22T00:36:39.975Z,12.92
2022-10-22T00:36:51.466Z,12.15
2022-10-22T00:36:58.934Z,11.70
2022-10-22T00:37:06.387Z,12.97
2022-10-22T00:37:13.839Z,14.70
2022-10-22T00:37:21.225Z,14.57
2022-10-22T00:37:40.984Z,13.32
2022-10-22T00:37:48.518Z,12.22
2022-10-22T00:37:56.051Z,13.54
2022-10-22T00:38:03.648Z,14.10
2022-10-22T00:38:11.056Z,14.03
2022-10-22T00:38:30.920Z,14.50
2022-10-22T00:38:38.354Z,13.75
2022-10-22T00:38:45.698Z,12.87
2022-10-22T00:38:53.358Z,12.70
2022-10-22T00:39:16.379Z,11.80
2022-10-22T00:39:25.622Z,10.73
2022-10-22T00:39:33.106Z,11.23
2022-10-22T00:39:40.632Z,12.22
2022-10-22T00:39:48.146Z,12.90
2022-10-22T00:39:55.526Z,13.26
2022-10-22T00:40:03.855Z,12.94
2022-10-22T00:40:12.121Z,12.17
2022-10-22T00:40:32.219Z,10.99
2022-10-22T00:40:39.637Z,11.28
2022-10-22T00:40:47.399Z,11.88
2022-10-22T00:40:55.207Z,13.22
2022-10-22T00:41:02.765Z,12.88
2022-10-22T00:41:13.855Z,12.83
2022-10-22T00:41:21.334Z,13.14
2022-10-22T00:41:41.061Z,13.11
2022-10-22T00:41:51.009Z,12.48
2022-10-22T00:41:59.140Z,11.76
2022-10-22T00:42:06.639Z,11.43
2022-10-22T00:42:20.278Z,11.33
2022-10-22T00:42:30.554Z,11.06
2022-10-22T00:42:38.398Z,12.83
2022-10-22T00:42:46.098Z,15.57
2022-10-22T00:42:54.292Z,16.50
2022-10-22T00:43:06.174Z,17.40
2022-10-22T00:43:15.323Z,14.20
2022-10-22T00:43:22.808Z,12.94
2022-10-22T00:44:03.494Z,10.15
2022-10-22T00:44:48.410Z,10.82
2022-10-22T00:45:05.016Z,12.11
2022-10-22T00:45:24.070Z,12.76
2022-10-22T00:45:31.739Z,12.45
2022-10-22T00:45:39.449Z,13.50
2022-10-22T00:45:47.111Z,14.43
2022-10-22T00:45:54.870Z,13.42
2022-10-22T00:46:02.397Z,13.43
2022-10-22T00:46:09.821Z,13.20
2022-10-22T00:46:17.234Z,12.90
2022-10-22T00:46:24.847Z,13.10
2022-10-22T00:46:32.445Z,12.42
2022-10-22T00:46:39.918Z,11.95
2022-10-22T00:46:47.291Z,12.22
2022-10-22T00:46:54.789Z,12.26
2022-10-22T00:47:02.183Z,12.57
2022-10-22T00:47:09.606Z,12.06
2022-10-22T00:47:19.134Z,11.87
2022-10-22T00:47:32.316Z,11.50
2022-10-22T00:47:47.076Z,11.38
2022-10-22T00:48:05.532Z,11.23
2022-10-22T00:48:22.272Z,12.10
2022-10-22T00:48:33.692Z,10.84
2022-10-22T00:48:41.251Z,10.51
2022-10-22T00:48:48.767Z,10.70
2022-10-22T00:48:59.432Z,11.02
2022-10-22T00:49:07.057Z,10.73
2022-10-22T00:49:14.466Z,10.37
2022-10-22T00:49:21.943Z,11.03
2022-10-22T00:49:30.265Z,12.17
2022-10-22T00:49:37.736Z,11.63
2022-10-22T00:49:46.907Z,12.83
2022-10-22T00:49:56.045Z,12.51
2022-10-22T00:50:06.590Z,12.86
2022-10-22T00:50:31.981Z,12.58
2022-10-22T00:50:56.818Z,11.86
2022-10-22T00:51:08.235Z,13.64
2022-10-22T00:51:16.065Z,12.91
2022-10-22T00:51:27.529Z,13.32
2022-10-22T00:51:36.543Z,14.40
2022-10-22T00:51:44.012Z,13.56
2022-10-22T00:51:51.475Z,12.16
2022-10-22T00:51:58.997Z,11.60
2022-10-22T00:52:06.824Z,11.54
2022-10-22T00:52:14.855Z,12.80
2022-10-22T00:52:22.987Z,12.37
2022-10-22T00:52:30.495Z,12.23
2022-10-22T00:52:38.411Z,12.68
2022-10-22T00:52:46.874Z,13.93
2022-10-22T00:52:55.595Z,14.03
2022-10-22T00:53:04.961Z,13.90
2022-10-22T00:53:19.463Z,13.93
2022-10-22T00:53:31.951Z,13.96
2022-10-22T00:53:45.589Z,14.94
2022-10-22T00:54:00.359Z,13.86
2022-10-22T00:54:10.040Z,14.36
2022-10-22T00:54:17.502Z,14.46
2022-10-22T00:54:24.951Z,12.43
2022-10-22T00:54:32.439Z,12.78
2022-10-22T00:54:41.552Z,13.10
2022-10-22T00:54:50.277Z,13.84
2022-10-22T00:54:58.433Z,14.13
2022-10-22T00:55:06.495Z,12.81
2022-10-22T00:55:15.204Z,12.47
2022-10-22T00:55:24.400Z,13.50
2022-10-22T00:55:33.712Z,14.10
2022-10-22T00:55:43.310Z,13.46
2022-10-22T00:55:54.507Z,11.80
2022-10-22T00:56:02.696Z,10.57
2022-10-22T00:56:10.882Z,10.87
2022-10-22T00:56:18.697Z,11.83
2022-10-22T00:56:26.654Z,13.13
2022-10-22T00:56:34.283Z,14.12
2022-10-22T00:56:41.730Z,14.85
2022-10-22T00:56:49.752Z,14.34
2022-10-22T00:56:57.284Z,12.87
2022-10-22T00:57:04.917Z,15.17
2022-10-22T00:57:12.468Z,17.74
2022-10-22T00:57:21.096Z,24.03
2022-10-22T00:57:28.762Z,29.45
2022-10-22T00:57:49.937Z,25.45
2022-10-22T00:57:58.711Z,17.57
2022-10-22T00:58:06.423Z,17.03
2022-10-22T00:58:14.435Z,16.37
2022-10-22T00:58:25.802Z,14.17
2022-10-22T00:58:39.847Z,13.56
2022-10-22T00:58:52.763Z,10.73
2022-10-22T00:59:02.777Z,10.80
2022-10-22T00:59:12.300Z,12.80
2022-10-22T00:59:19.850Z,12.63
2022-10-22T00:59:28.750Z,12.60
2022-10-22T00:59:37.726Z,11.96
2022-10-22T00:59:45.467Z,11.97
2022-10-22T00:59:53.016Z,12.12
2022-10-22T01:00:00.636Z,11.20
2022-10-22T01:00:09.243Z,11.00
2022-10-22T01:00:30.254Z,10.25
2022-10-22T01:00:37.832Z,10.38
2022-10-22T01:00:45.639Z,9.68
2022-10-22T01:00:53.279Z,9.10
2022-10-22T01:01:01.056Z,8.98
2022-10-22T01:01:12.755Z,9.28
2022-10-22T01:01:25.772Z,10.40
2022-10-22T01:01:33.291Z,10.56
2022-10-22T01:01:40.853Z,10.82
2022-10-22T01:01:48.250Z,11.10
2022-10-22T01:02:07.961Z,12.21
2022-10-22T01:02:15.892Z,12.28
2022-10-22T01:02:23.427Z,12.38
2022-10-22T01:02:31.069Z,12.77
2022-10-22T01:02:38.820Z,11.18
2022-10-22T01:03:00.233Z,11.13
2022-10-22T01:03:08.396Z,10.70
2022-10-22T01:03:16.155Z,11.18
2022-10-22T01:03:24.162Z,11.08
2022-10-22T01:03:32.959Z,10.30
2022-10-22T01:03:40.396Z,10.07
2022-10-22T01:03:48.597Z,9.93
2022-10-22T01:04:08.933Z,11.64
2022-10-22T01:04:17.312Z,11.80
2022-10-22T01:04:24.846Z,10.71
2022-10-22T01:04:32.461Z,10.58
2022-10-22T01:04:41.360Z,9.78
2022-10-22T01:04:48.895Z,10.31
2022-10-22T01:05:09.091Z,10.82
2022-10-22T01:05:17.176Z,11.15
2022-10-22T01:05:31.754Z,11.03
2022-10-22T01:05:45.579Z,11.34
2022-10-22T01:06:16.002Z,10.81
2022-10-22T01:06:34.536Z,10.57
2022-10-22T01:06:42.254Z,12.39
2022-10-22T01:06:50.027Z,14.20
2022-10-22T01:06:57.536Z,15.13
2022-10-22T01:07:05.217Z,14.63
2022-10-22T01:07:21.757Z,15.27
2022-10-22T01:07:29.555Z,13.91
2022-10-22T01:07:43.384Z,15.10
2022-10-22T01:07:53.528Z,13.96
2022-10-22T01:08:01.033Z,13.43
2022-10-22T01:08:18.643Z,11.52
2022-10-22T01:08:49.363Z,10.82
2022-10-22T01:09:26.857Z,10.65
2022-10-22T01:09:47.243Z,14.40
2022-10-22T01:10:08.280Z,19.71
2022-10-22T01:10:33.082Z,18.85
2022-10-22T01:11:03.608Z,11.68
2022-10-22T01:11:25.765Z,11.23
2022-10-22T01:11:42.076Z,11.84
2022-10-22T01:12:04.462Z,10.66
2022-10-22T01:12:17.892Z,9.30
2022-10-22T01:12:40.175Z,9.57
2022-10-22T01:13:06.596Z,10.20
2022-10-22T01:13:14.041Z,13.18
2022-10-22T01:13:50.084Z,15.20
2022-10-22T01:14:19.847Z,13.26
2022-10-22T01:15:05.620Z,12.10
2022-10-22T01:16:00.663Z,13.32
2022-10-22T01:16:21.097Z,13.71
2022-10-22T01:16:35.176Z,11.23
2022-10-22T01:17:34.525Z,9.55
2022-10-22T01:17:42.184Z,11.05
2022-10-22T01:17:56.199Z,12.07
2022-10-22T01:18:13.620Z,12.41
2022-10-22T01:18:30.125Z,11.34
2022-10-22T01:18:43.579Z,10.66
2022-10-22T01:18:57.180Z,11.95
2022-10-22T01:19:35.299Z,13.86
2022-10-22T01:20:20.136Z,13.39
2022-10-22T01:20:58.591Z,11.40
2022-10-22T01:21:15.643Z,11.74
2022-10-22T01:21:45.800Z,11.65
2022-10-22T01:21:59.681Z,10.70
2022-10-22T01:22:15.554Z,11.02
2022-10-22T01:22:50.057Z,10.64
2022-10-22T01:23:03.562Z,10.34
2022-10-22T01:23:29.138Z,12.07
2022-10-22T01:24:07.181Z,13.69
2022-10-22T01:24:41.747Z,11.75
2022-10-22T01:24:55.305Z,11.63
2022-10-22T01:25:48.535Z,12.90
2022-10-22T01:26:58.521Z,14.25
2022-10-22T01:27:47.728Z,12.52
2022-10-22T01:28:22.532Z,11.64
2022-10-22T01:28:47.494Z,12.01
2022-10-22T01:29:34.178Z,11.45
2022-10-22T01:29:48.381Z,11.06
2022-10-22T01:30:02.377Z,10.76
2022-10-22T01:30:13.813Z,10.49
2022-10-22T01:30:21.842Z,11.41
2022-10-22T01:30:29.647Z,11.10
2022-10-22T01:30:38.754Z,10.43
2022-10-22T01:30:49.777Z,10.16
2022-10-22T01:31:00.403Z,10.06
2022-10-22T01:31:11.425Z,10.20
2022-10-22T01:31:22.183Z,10.21
2022-10-22T01:31:51.074Z,10.66
2022-10-22T01:32:07.197Z,10.88
2022-10-22T01:32:24.461Z,12.34
2022-10-22T01:32:37.152Z,12.57
2022-10-22T01:32:54.043Z,11.84
2022-10-22T01:33:07.205Z,11.09
2022-10-22T01:33:18.714Z,10.56
2022-10-22T01:33:26.990Z,11.51
2022-10-22T01:33:34.785Z,11.92
2022-10-22T01:33:44.562Z,12.63
2022-10-22T01:33:55.114Z,12.49
2022-10-22T01:34:04.672Z,12.75
2022-10-22T01:34:16.970Z,13.64
2022-10-22T01:34:26.136Z,12.86
2022-10-22T01:34:34.826Z,12.53
2022-10-22T01:34:45.121Z,10.93
2022-10-22T01:35:02.166Z,11.41
2022-10-22T01:35:13.064Z,11.80
2022-10-22T01:35:27.618Z,12.09
2022-10-22T01:35:39.417Z,11.15
2022-10-22T01:35:47.063Z,11.63
2022-10-22T01:35:55.368Z,11.83
2022-10-22T01:36:04.806Z,12.10
2022-10-22T01:36:14.742Z,11.79
2022-10-22T01:36:22.854Z,11.65
2022-10-22T01:36:32.645Z,11.40
2022-10-22T01:36:41.915Z,11.38
2022-10-22T01:36:51.965Z,11.49
2022-10-22T01:37:00.296Z,12.00
2022-10-22T01:37:08.898Z,12.00
2022-10-22T01:37:19.162Z,12.90
2022-10-22T01:37:30.948Z,13.09
2022-10-22T01:37:48.911Z,13.45
2022-10-22T01:38:04.086Z,14.04
2022-10-22T01:38:19.783Z,12.26
2022-10-22T01:38:27.950Z,10.45
2022-10-22T01:38:35.775Z,13.63
2022-10-22T01:38:45.406Z,14.63
2022-10-22T01:38:53.787Z,17.07
2022-10-22T01:39:02.908Z,16.63
2022-10-22T01:39:11.498Z,14.04
2022-10-22T01:39:20.810Z,11.81
2022-10-22T01:39:29.774Z,12.03
2022-10-22T01:39:38.903Z,11.70
2022-10-22T01:39:48.064Z,12.33
2022-10-22T01:39:58.073Z,10.70
2022-10-22T01:40:07.813Z,11.57
2022-10-22T01:40:16.844Z,12.15
2022-10-22T01:40:25.307Z,12.13
2022-10-22T01:40:33.733Z,12.27
2022-10-22T01:40:43.194Z,12.82
2022-10-22T01:40:52.286Z,12.99
2022-10-22T01:41:00.675Z,12.77
2022-10-22T01:41:08.923Z,12.47
2022-10-22T01:41:16.840Z,11.18
2022-10-22T01:41:24.413Z,11.18
2022-10-22T01:41:31.845Z,11.08
2022-10-22T01:41:43.668Z,11.50
2022-10-22T01:41:51.084Z,12.89
2022-10-22T01:41:59.630Z,11.98
2022-10-22T01:42:07.038Z,12.16
2022-10-22T01:42:15.349Z,10.77
2022-10-22T01:42:23.908Z,10.60
2022-10-22T01:42:31.355Z,10.12
2022-10-22T01:42:38.726Z,10.87
2022-10-22T01:43:03.850Z,11.08
2022-10-22T01:43:12.264Z,11.63
2022-10-22T01:43:20.007Z,10.91
2022-10-22T01:43:27.474Z,10.93
2022-10-22T01:43:34.930Z,10.33
2022-10-22T01:43:42.281Z,9.86
2022-10-22T01:43:49.824Z,10.53
2022-10-22T01:43:57.317Z,10.84
2022-10-22T01:44:04.877Z,10.93
2022-10-22T01:44:31.321Z,10.38
2022-10-22T01:44:38.931Z,10.86
2022-10-22T01:44:49.008Z,10.86
2022-10-22T01:44:56.548Z,10.23
2022-10-22T01:45:12.617Z,9.77
2022-10-22T01:45:20.112Z,10.02
2022-10-22T01:45:30.549Z,11.47
2022-10-22T01:45:56.602Z,11.54
2022-10-22T01:46:06.537Z,11.77
2022-10-22T01:46:14.549Z,11.76
2022-10-22T01:46:26.023Z,11.18
2022-10-22T01:46:33.706Z,10.52
2022-10-22T01:46:41.242Z,10.47
2022-10-22T01:46:51.675Z,10.35
2022-10-22T01:47:27.469Z,10.90
2022-10-22T01:47:58.983Z,11.73
2022-10-22T01:48:24.231Z,11.46
2022-10-22T01:48:56.535Z,11.65
2022-10-22T01:49:07.067Z,12.07
2022-10-22T01:49:32.329Z,11.94
2022-10-22T01:49:51.459Z,12.36
2022-10-22T01:50:20.698Z,12.32
2022-10-22T01:50:46.094Z,11.43
2022-10-22T01:51:31.715Z,10.76
2022-10-22T01:51:49.493Z,10.10
2022-10-22T01:52:12.703Z,9.14
2022-10-22T01:52:28.315Z,10.18
2022-10-22T01:52:46.096Z,10.25
2022-10-22T01:53:05.825Z,10.23
2022-10-22T01:53:21.868Z,10.13
2022-10-22T01:53:39.894Z,10.54
2022-10-22T01:53:53.227Z,11.61
2022-10-22T01:54:27.781Z,12.99
2022-10-22T01:54:35.241Z,12.74
2022-10-22T01:54:48.309Z,10.85
2022-10-22T01:55:22.402Z,11.23
2022-10-22T01:55:35.373Z,11.63
2022-10-22T01:56:19.445Z,9.96
2022-10-22T01:56:58.552Z,8.48
2022-10-22T01:57:28.614Z,9.02
2022-10-22T01:58:16.611Z,10.73
2022-10-22T01:58:35.070Z,9.48
2022-10-22T01:59:01.468Z,9.02
2022-10-22T01:59:32.066Z,9.34
2022-10-22T01:59:49.468Z,10.71
2022-10-22T02:00:10.970Z,9.66
2022-10-22T02:00:20.364Z,11.05
2022-10-22T02:00:28.209Z,12.50
2022-10-22T02:00:40.098Z,7.80
2022-10-22T02:00:57.535Z,9.77
2022-10-22T02:01:26.602Z,10.16
2022-10-22T02:02:15.385Z,9.51
2022-10-22T02:02:37.663Z,9.25
2022-10-22T02:02:53.678Z,8.75
2022-10-22T02:03:13.281Z,8.38
2022-10-22T02:03:30.431Z,8.15
2022-10-22T02:04:15.999Z,9.85
2022-10-22T02:04:36.039Z,9.98
2022-10-22T02:04:43.393Z,9.59
2022-10-22T02:04:57.495Z,9.98
2022-10-22T02:05:22.762Z,9.84
2022-10-22T02:05:30.084Z,8.77
2022-10-22T02:05:51.491Z,9.06
2022-10-22T02:06:05.143Z,9.56
2022-10-22T02:06:19.295Z,10.10
2022-10-22T02:06:29.862Z,8.98
2022-10-22T02:06:41.157Z,8.22
2022-10-22T02:06:52.137Z,8.03
2022-10-22T02:07:04.952Z,8.22
2022-10-22T02:07:17.655Z,9.44
2022-10-22T02:07:30.193Z,11.10
2022-10-22T02:07:46.431Z,11.02
2022-10-22T02:08:03.181Z,9.61
2022-10-22T02:08:14.132Z,8.24
2022-10-22T02:08:25.149Z,7.49
2022-10-22T02:08:34.644Z,8.23
2022-10-22T02:08:42.981Z,8.63
2022-10-22T02:08:51.778Z,10.03
2022-10-22T02:09:00.680Z,9.53
2022-10-22T02:09:09.730Z,9.40
2022-10-22T02:09:20.678Z,9.49
2022-10-22T02:09:30.871Z,9.16
2022-10-22T02:09:39.793Z,9.38
2022-10-22T02:09:48.162Z,8.63
2022-10-22T02:09:57.607Z,9.63
2022-10-22T02:10:07.769Z,9.01
2022-10-22T02:10:17.749Z,9.33
2022-10-22T02:10:26.350Z,9.99
2022-10-22T02:10:37.348Z,9.65
2022-10-22T02:10:48.320Z,10.57
2022-10-22T02:10:57.754Z,10.02
2022-10-22T02:11:05.911Z,9.16
2022-10-22T02:11:15.545Z,8.18
2022-10-22T02:11:23.165Z,7.54
2022-10-22T02:11:30.795Z,8.47
2022-10-22T02:11:38.959Z,9.58
2022-10-22T02:11:47.914Z,11.28
2022-10-22T02:11:57.529Z,11.97
2022-10-22T02:12:08.153Z,12.01
2022-10-22T02:12:18.074Z,11.03
2022-10-22T02:12:28.395Z,9.93
2022-10-22T02:12:36.860Z,8.57
2022-10-22T02:12:48.938Z,8.00
2022-10-22T02:12:57.816Z,9.48
2022-10-22T02:13:08.588Z,10.76
2022-10-22T02:13:25.117Z,12.32
2022-10-22T02:13:37.791Z,12.21
2022-10-22T02:13:53.409Z,10.11
2022-10-22T02:14:03.847Z,10.24
2022-10-22T02:14:13.371Z,11.07
2022-10-22T02:14:21.996Z,10.00
2022-10-22T02:14:30.545Z,7.77
2022-10-22T02:14:41.542Z,8.61
2022-10-22T02:14:51.017Z,8.84
2022-10-22T02:15:01.004Z,8.90
2022-10-22T02:15:10.952Z,8.24
2022-10-22T02:15:20.809Z,9.36
2022-10-22T02:15:30.605Z,9.64
2022-10-22T02:15:40.336Z,9.47
2022-10-22T02:15:51.949Z,8.36
2022-10-22T02:16:00.426Z,8.23
2022-10-22T02:16:10.038Z,8.14
2022-10-22T02:16:43.729Z,7.87
2022-10-22T02:16:51.422Z,7.71
2022-10-22T02:16:59.944Z,8.80
2022-10-22T02:17:11.893Z,8.43
2022-10-22T02:17:22.401Z,8.52
2022-10-22T02:17:33.937Z,8.72
2022-10-22T02:17:45.190Z,9.52
2022-10-22T02:17:53.981Z,9.06
2022-10-22T02:18:02.036Z,8.90
2022-10-22T02:18:10.846Z,8.00
2022-10-22T02:18:22.591Z,10.19
2022-10-22T02:18:36.291Z,10.35
2022-10-22T02:18:49.707Z,8.88
2022-10-22T02:19:01.589Z,7.29
2022-10-22T02:19:48.742Z,8.20
2022-10-22T02:20:13.707Z,8.94
2022-10-22T02:20:26.548Z,11.38
2022-10-22T02:20:36.451Z,12.34
2022-10-22T02:20:43.889Z,11.80
2022-10-22T02:20:51.617Z,9.03
2022-10-22T02:21:00.454Z,9.70
2022-10-22T02:21:20.662Z,9.32
2022-10-22T02:21:28.703Z,9.03
2022-10-22T02:21:36.256Z,9.45
2022-10-22T02:21:44.592Z,9.40
2022-10-22T02:21:53.035Z,8.70
2022-10-22T02:22:00.780Z,9.50
2022-10-22T02:22:08.526Z,10.68
2022-10-22T02:22:16.377Z,12.67
2022-10-22T02:22:25.309Z,13.88
2022-10-22T02:22:33.374Z,14.94
2022-10-22T02:22:41.956Z,11.37
2022-10-22T02:22:50.090Z,11.70
2022-10-22T02:22:58.548Z,9.96
2022-10-22T02:23:06.404Z,9.53
2022-10-22T02:23:14.386Z,10.63
2022-10-22T02:23:22.359Z,9.17
2022-10-22T02:23:29.792Z,8.77
2022-10-22T02:23:37.516Z,9.00
2022-10-22T02:23:45.297Z,8.55
2022-10-22T02:23:52.779Z,9.77
2022-10-22T02:24:00.126Z,10.23
2022-10-22T02:24:08.298Z,9.67
2022-10-22T02:24:16.742Z,10.06
2022-10-22T02:24:38.123Z,11.89
2022-10-22T02:24:45.865Z,10.98
2022-10-22T02:24:54.724Z,9.13
2022-10-22T02:25:02.369Z,8.72
2022-10-22T02:25:10.805Z,9.22
2022-10-22T02:25:18.505Z,9.57
2022-10-22T02:25:30.927Z,9.60
2022-10-22T02:25:42.755Z,9.36
2022-10-22T02:25:56.262Z,9.54
2022-10-22T02:26:23.999Z,9.61
2022-10-22T02:26:45.210Z,9.07
2022-10-22T02:27:01.864Z,8.56
2022-10-22T02:27:09.213Z,9.20
2022-10-22T02:27:33.279Z,8.37
2022-10-22T02:28:00.838Z,8.06
2022-10-22T02:28:25.725Z,8.82
2022-10-22T02:28:50.265Z,9.23
2022-10-22T02:29:15.603Z,8.88
2022-10-22T02:29:35.584Z,9.04
2022-10-22T02:30:07.870Z,9.66
2022-10-22T02:30:21.596Z,9.19
2022-10-22T02:30:31.082Z,9.25
2022-10-22T02:30:40.522Z,8.41
2022-10-22T02:30:55.027Z,8.16
2022-10-22T02:31:11.041Z,8.61
2022-10-22T02:31:24.548Z,9.06
2022-10-22T02:31:36.735Z,9.63
2022-10-22T02:31:46.528Z,10.04
2022-10-22T02:31:58.083Z,9.29
2022-10-22T02:32:09.377Z,9.18
2022-10-22T02:32:20.470Z,9.03
2022-10-22T02:32:34.670Z,8.81
2022-10-22T02:32:58.208Z,8.69
2022-10-22T02:33:12.281Z,8.84
2022-10-22T02:33:27.630Z,9.04
2022-10-22T02:33:41.974Z,9.18
2022-10-22T02:33:54.047Z,11.04
2022-10-22T02:34:08.909Z,11.16
2022-10-22T02:34:24.793Z,9.38
2022-10-22T02:34:33.017Z,8.13
2022-10-22T02:34:41.440Z,8.40
2022-10-22T02:34:50.298Z,8.60
2022-10-22T02:34:59.429Z,8.20
2022-10-22T02:35:09.900Z,7.73
2022-10-22T02:35:21.522Z,8.24
2022-10-22T02:35:30.389Z,8.79
2022-10-22T02:35:41.061Z,9.07
2022-10-22T02:35:49.960Z,8.81
2022-10-22T02:35:59.787Z,9.63
2022-10-22T02:36:08.416Z,10.19
2022-10-22T02:36:18.174Z,11.11
2022-10-22T02:36:26.395Z,10.98
2022-10-22T02:36:34.153Z,9.93
2022-10-22T02:36:46.712Z,9.37
2022-10-22T02:36:58.861Z,9.24
2022-10-22T02:37:07.456Z,10.57
2022-10-22T02:37:16.512Z,9.40
2022-10-22T02:37:26.332Z,8.50
2022-10-22T02:37:34.265Z,7.78
2022-10-22T02:37:42.906Z,8.62
2022-10-22T02:37:51.739Z,8.66
2022-10-22T02:38:00.355Z,8.93
2022-10-22T02:38:08.933Z,8.29
2022-10-22T02:38:17.866Z,8.37
2022-10-22T02:38:27.183Z,9.70
2022-10-22T02:38:36.364Z,10.10
2022-10-22T02:38:46.117Z,10.53
2022-10-22T02:38:54.260Z,9.17
2022-10-22T02:39:03.032Z,8.85
2022-10-22T02:39:11.593Z,8.27
2022-10-22T02:39:21.355Z,7.80
2022-10-22T02:39:30.406Z,7.44
2022-10-22T02:39:38.899Z,7.69
2022-10-22T02:39:46.974Z,7.97
2022-10-22T02:39:56.531Z,7.80
2022-10-22T02:40:04.843Z,8.74
2022-10-22T02:40:13.091Z,8.56
2022-10-22T02:40:21.463Z,8.47
2022-10-22T02:40:30.937Z,8.27
2022-10-22T02:40:38.835Z,7.78
2022-10-22T02:40:47.163Z,8.32
2022-10-22T02:40:54.972Z,8.07
2022-10-22T02:41:03.196Z,8.00